createdAt,value
2018-09-26T00:02:18.166Z,99.90
2018-09-26T00:04:48.497Z,99.70
2018-09-26T00:07:18.642Z,99.90
2018-09-26T00:09:47.892Z,99.90
2018-09-26T00:12:20.883Z,99.50
2018-09-26T00:14:49.917Z,99.40
2018-09-26T00:17:19.909Z,99.90
2018-09-26T00:19:50.037Z,99.20
2018-09-26T00:22:23.886Z,99.40
2018-09-26T00:24:53.546Z,98.20
2018-09-26T00:27:42.346Z,98.00
2018-09-26T00:30:11.927Z,98.40
2018-09-26T00:32:42.940Z,97.90
2018-09-26T00:35:19.135Z,97.90
2018-09-26T00:37:48.227Z,99.40
2018-09-26T00:40:17.401Z,99.90
2018-09-26T00:42:46.492Z,99.90
2018-09-26T00:45:15.610Z,99.00
2018-09-26T00:47:44.794Z,98.30
2018-09-26T00:50:13.854Z,98.20
2018-09-26T00:52:43.053Z,98.10
2018-09-26T00:55:14.358Z,98.00
2018-09-26T00:57:43.413Z,98.40
2018-09-26T01:00:18.629Z,98.50
2018-09-26T01:02:51.034Z,97.90
2018-09-26T01:05:22.734Z,98.00
2018-09-26T01:07:52.815Z,98.00
2018-09-26T01:10:22.357Z,99.90
2018-09-26T01:12:55.911Z,99.90
2018-09-26T01:15:25.915Z,99.20
2018-09-26T01:17:57.058Z,98.90
2018-09-26T01:20:27.820Z,99.00
2018-09-26T01:22:58.239Z,98.50
2018-09-26T01:25:28.798Z,98.40
2018-09-26T01:28:00.831Z,96.80
2018-09-26T01:30:31.976Z,98.20
2018-09-26T01:33:01.753Z,98.00
2018-09-26T01:35:30.886Z,97.70
2018-09-26T01:38:00.228Z,98.20
2018-09-26T01:40:34.795Z,97.50
2018-09-26T01:43:05.546Z,97.10
2018-09-26T01:45:34.670Z,97.00
2018-09-26T01:48:08.894Z,97.10
2018-09-26T01:50:38.073Z,97.90
2018-09-26T01:53:07.314Z,98.70
2018-09-26T01:55:37.483Z,98.10
2018-09-26T01:58:08.026Z,97.70
2018-09-26T02:03:11.194Z,97.60
2018-09-26T02:05:49.784Z,97.80
2018-09-26T02:08:19.009Z,98.10
2018-09-26T02:10:48.090Z,99.50
2018-09-26T02:13:17.925Z,99.90
2018-09-26T02:15:50.473Z,99.90
2018-09-26T02:18:19.840Z,99.90
2018-09-26T02:20:52.233Z,99.90
2018-09-26T02:23:24.015Z,99.90
2018-09-26T02:25:53.620Z,99.90
2018-09-26T02:28:22.785Z,99.90
2018-09-26T02:30:56.876Z,99.90
2018-09-26T02:33:26.098Z,99.90
2018-09-26T02:35:55.222Z,99.90
2018-09-26T02:38:25.969Z,99.90
2018-09-26T02:40:55.219Z,99.90
2018-09-26T02:43:24.462Z,99.90
2018-09-26T02:45:53.504Z,99.90
2018-09-26T02:48:27.627Z,99.90
2018-09-26T02:50:56.749Z,99.90
2018-09-26T02:53:27.704Z,99.90
2018-09-26T02:55:59.058Z,99.90
2018-09-26T02:58:28.209Z,99.90
2018-09-26T03:00:59.469Z,99.90
2018-09-26T03:03:30.686Z,99.90
2018-09-26T03:05:59.893Z,99.90
2018-09-26T03:08:31.756Z,99.90
2018-09-26T03:11:00.966Z,99.90
2018-09-26T03:13:30.429Z,99.90
2018-09-26T03:15:59.624Z,99.90
2018-09-26T03:18:28.686Z,99.90
2018-09-26T03:20:57.870Z,99.90
2018-09-26T03:23:27.081Z,99.90
2018-09-26T03:25:56.649Z,99.90
2018-09-26T03:28:25.815Z,99.90
2018-09-26T03:30:54.824Z,99.90
2018-09-26T03:33:24.534Z,99.90
2018-09-26T03:35:53.779Z,99.90
2018-09-26T03:38:22.844Z,99.90
2018-09-26T03:40:56.484Z,99.90
2018-09-26T03:43:25.642Z,99.90
2018-09-26T03:45:54.721Z,99.90
2018-09-26T03:48:24.926Z,99.90
2018-09-26T03:50:53.994Z,99.90
2018-09-26T03:53:25.055Z,99.90
2018-09-26T03:55:54.049Z,99.90
2018-09-26T03:58:24.807Z,99.90
2018-09-26T04:00:56.002Z,99.90
2018-09-26T04:03:25.025Z,99.90
2018-09-26T04:06:00.071Z,99.90
2018-09-26T04:08:29.473Z,99.90
2018-09-26T04:11:00.427Z,99.90
2018-09-26T04:13:30.638Z,99.90
2018-09-26T04:15:59.846Z,99.90
2018-09-26T04:18:29.479Z,99.90
2018-09-26T04:23:53.517Z,99.90
2018-09-26T04:26:22.723Z,99.90
2018-09-26T04:28:53.710Z,99.90
2018-09-26T04:31:22.835Z,99.90
2018-09-26T04:33:52.037Z,99.90
2018-09-26T04:36:21.138Z,99.90
2018-09-26T04:38:50.317Z,99.90
2018-09-26T04:41:19.466Z,99.90
2018-09-26T04:43:52.733Z,99.90
2018-09-26T04:46:21.851Z,99.90
2018-09-26T04:48:51.073Z,99.90
2018-09-26T04:51:20.080Z,99.90
2018-09-26T04:53:49.150Z,99.90
2018-09-26T04:56:19.373Z,99.90
2018-09-26T04:58:48.511Z,99.90
2018-09-26T05:01:18.066Z,99.90
2018-09-26T05:03:47.954Z,99.90
2018-09-26T05:06:19.402Z,99.90
2018-09-26T05:08:48.676Z,99.90
2018-09-26T05:11:18.641Z,99.90
2018-09-26T05:13:47.715Z,99.90
2018-09-26T05:16:18.719Z,99.90
2018-09-26T05:18:47.814Z,99.90
2018-09-26T05:21:18.502Z,99.90
2018-09-26T05:23:48.439Z,99.90
2018-09-26T05:26:17.494Z,99.90
2018-09-26T05:31:22.213Z,99.90
2018-09-26T05:33:51.249Z,99.90
2018-09-26T05:36:23.806Z,99.90
2018-09-26T05:38:53.052Z,99.90
2018-09-26T05:41:26.103Z,99.90
2018-09-26T05:43:56.731Z,99.90
2018-09-26T05:46:25.784Z,99.90
2018-09-26T05:48:56.770Z,99.90
2018-09-26T05:51:29.107Z,99.90
2018-09-26T05:53:59.925Z,99.90
2018-09-26T05:56:30.307Z,99.90
2018-09-26T05:59:01.643Z,99.90
2018-09-26T06:01:32.615Z,99.90
2018-09-26T06:06:36.011Z,99.90
2018-09-26T06:09:09.162Z,99.90
2018-09-26T06:11:38.237Z,99.90
2018-09-26T06:14:09.657Z,99.90
2018-09-26T06:16:39.616Z,99.90
2018-09-26T06:19:17.218Z,99.90
2018-09-26T06:21:48.835Z,99.90
2018-09-26T06:24:17.894Z,99.90
2018-09-26T06:26:48.386Z,99.90
2018-09-26T06:29:17.559Z,99.90
2018-09-26T06:31:47.297Z,99.90
2018-09-26T06:34:16.413Z,99.90
2018-09-26T06:36:45.536Z,99.90
2018-09-26T06:39:19.398Z,99.90
2018-09-26T06:41:48.430Z,99.90
2018-09-26T06:44:17.422Z,99.90
2018-09-26T06:46:48.774Z,99.90
2018-09-26T06:49:18.199Z,99.90
2018-09-26T06:51:47.423Z,99.90
2018-09-26T06:54:16.482Z,99.90
2018-09-26T06:56:49.176Z,99.90
2018-09-26T06:59:18.469Z,99.90
2018-09-26T07:01:47.686Z,99.90
2018-09-26T07:04:17.032Z,99.90
2018-09-26T07:06:49.427Z,99.90
2018-09-26T07:09:19.023Z,99.90
2018-09-26T07:11:50.148Z,99.90
2018-09-26T07:14:19.790Z,99.90
2018-09-26T07:16:54.807Z,99.90
2018-09-26T07:19:25.741Z,99.90
2018-09-26T07:25:09.737Z,99.90
2018-09-26T07:30:18.916Z,99.90
2018-09-26T07:32:54.556Z,99.60
2018-09-26T07:35:23.702Z,99.60
2018-09-26T07:37:56.450Z,99.90
2018-09-26T07:40:25.870Z,99.50
2018-09-26T07:42:55.230Z,98.30
2018-09-26T07:45:24.491Z,98.70
2018-09-26T07:47:54.720Z,99.70
2018-09-26T07:50:24.260Z,99.90
2018-09-26T07:52:54.630Z,99.30
2018-09-26T07:55:25.495Z,98.80
2018-09-26T07:57:56.123Z,98.20
2018-09-26T08:00:28.036Z,98.20
2018-09-26T08:02:58.858Z,96.50
2018-09-26T08:05:28.937Z,96.40
2018-09-26T08:08:08.993Z,96.90
2018-09-26T08:10:49.206Z,95.20
2018-09-26T08:13:18.462Z,94.80
2018-09-26T08:15:47.774Z,96.10
2018-09-26T08:18:17.081Z,93.20
2018-09-26T08:20:46.401Z,91.50
2018-09-26T08:23:26.573Z,91.40
2018-09-26T08:25:58.389Z,90.50
2018-09-26T08:28:28.570Z,87.50
2018-09-26T08:30:57.845Z,86.80
2018-09-26T08:33:28.369Z,82.80
2018-09-26T08:35:57.466Z,83.80
2018-09-26T08:38:32.931Z,83.30
2018-09-26T08:41:03.554Z,79.60
2018-09-26T08:43:34.421Z,76.40
2018-09-26T08:46:04.595Z,75.00
2018-09-26T08:48:34.566Z,73.20
2018-09-26T08:51:03.722Z,71.70
2018-09-26T08:53:32.891Z,67.90
2018-09-26T08:56:02.683Z,65.40
2018-09-26T08:58:35.315Z,58.50
2018-09-26T09:01:17.392Z,56.00
2018-09-26T09:03:46.611Z,49.60
2018-09-26T09:06:18.202Z,48.70
2018-09-26T09:08:47.361Z,47.60
2018-09-26T09:11:20.296Z,46.50
2018-09-26T09:13:50.213Z,46.70
2018-09-26T09:16:19.430Z,48.00
2018-09-26T09:18:49.328Z,44.30
2018-09-26T09:21:20.052Z,46.10
2018-09-26T09:23:49.505Z,44.20
2018-09-26T09:26:18.619Z,45.80
2018-09-26T09:28:48.810Z,41.30
2018-09-26T09:31:18.635Z,40.90
2018-09-26T09:33:47.778Z,39.70
2018-09-26T09:36:17.979Z,40.50
2018-09-26T09:38:47.254Z,44.10
2018-09-26T09:41:16.518Z,40.40
2018-09-26T09:43:46.454Z,41.20
2018-09-26T09:46:16.064Z,40.30
2018-09-26T09:48:45.201Z,40.70
2018-09-26T09:51:14.393Z,40.50
2018-09-26T09:53:45.370Z,41.80
2018-09-26T09:56:14.595Z,37.80
2018-09-26T09:58:43.733Z,37.00
2018-09-26T10:01:19.781Z,35.00
2018-09-26T10:03:48.953Z,36.80
2018-09-26T10:06:18.138Z,35.70
2018-09-26T10:08:48.381Z,35.30
2018-09-26T10:11:17.644Z,37.20
2018-09-26T10:13:47.136Z,35.60
2018-09-26T10:16:17.775Z,34.70
2018-09-26T10:18:46.965Z,33.30
2018-09-26T10:21:16.194Z,34.20
2018-09-26T10:23:45.747Z,37.00
2018-09-26T10:26:14.889Z,37.50
2018-09-26T10:28:45.741Z,39.20
2018-09-26T10:31:15.587Z,35.60
2018-09-26T10:33:46.013Z,33.70
2018-09-26T10:36:15.957Z,33.30
2018-09-26T10:38:45.133Z,32.90
2018-09-26T10:41:14.349Z,34.10
2018-09-26T10:43:44.534Z,33.80
2018-09-26T10:46:14.286Z,32.40
2018-09-26T10:48:44.598Z,33.70
2018-09-26T10:51:15.510Z,32.70
2018-09-26T10:53:44.823Z,37.10
2018-09-26T10:56:13.960Z,33.50
2018-09-26T10:58:45.789Z,35.60
2018-09-26T11:01:17.822Z,36.40
2018-09-26T11:03:47.606Z,33.70
2018-09-26T11:06:16.858Z,31.80
2018-09-26T11:08:47.042Z,32.40
2018-09-26T11:11:16.162Z,32.30
2018-09-26T11:13:45.306Z,34.60
2018-09-26T11:16:14.924Z,31.50
2018-09-26T11:18:44.053Z,32.20
2018-09-26T11:21:13.182Z,31.10
2018-09-26T11:23:42.339Z,31.50
2018-09-26T11:26:11.463Z,32.10
2018-09-26T11:28:41.425Z,33.50
2018-09-26T11:31:10.470Z,32.70
2018-09-26T11:33:39.772Z,35.80
2018-09-26T11:36:10.347Z,31.70
2018-09-26T11:38:39.554Z,30.80
2018-09-26T11:41:09.894Z,31.00
2018-09-26T11:43:39.662Z,29.90
2018-09-26T11:46:11.443Z,33.30
2018-09-26T11:48:41.544Z,34.90
2018-09-26T11:51:10.818Z,31.40
2018-09-26T11:53:40.291Z,32.60
2018-09-26T11:56:09.501Z,31.10
2018-09-26T11:58:39.771Z,31.30
2018-09-26T12:01:09.786Z,31.10
2018-09-26T12:03:41.074Z,31.30
2018-09-26T12:06:11.757Z,30.00
2018-09-26T12:08:40.875Z,29.10
2018-09-26T12:11:10.053Z,28.60
2018-09-26T12:13:39.294Z,31.10
2018-09-26T12:16:08.846Z,30.70
2018-09-26T12:18:38.454Z,29.10
2018-09-26T12:21:07.774Z,30.00
2018-09-26T12:23:36.883Z,29.20
2018-09-26T12:26:06.090Z,28.60
2018-09-26T12:28:35.208Z,28.10
2018-09-26T12:31:05.954Z,28.00
2018-09-26T12:33:35.114Z,29.00
2018-09-26T12:36:04.494Z,30.50
2018-09-26T12:38:33.972Z,29.60
2018-09-26T12:41:03.856Z,29.60
2018-09-26T12:43:33.213Z,29.00
2018-09-26T12:46:03.065Z,30.40
2018-09-26T12:48:32.244Z,29.40
2018-09-26T12:51:01.352Z,29.60
2018-09-26T12:53:31.556Z,30.20
2018-09-26T12:56:01.910Z,30.00
2018-09-26T12:58:31.009Z,29.40
2018-09-26T13:01:00.309Z,29.30
2018-09-26T13:03:29.450Z,30.70
2018-09-26T13:05:58.881Z,32.50
2018-09-26T13:08:28.060Z,34.60
2018-09-26T13:10:57.906Z,31.80
2018-09-26T13:13:27.938Z,31.30
2018-09-26T13:15:58.155Z,31.50
2018-09-26T13:18:30.108Z,33.70
2018-09-26T13:21:00.018Z,31.50
2018-09-26T13:23:29.330Z,32.30
2018-09-26T13:25:59.336Z,33.30
2018-09-26T13:28:31.784Z,34.70
2018-09-26T13:31:01.038Z,33.70
2018-09-26T13:33:30.284Z,34.70
2018-09-26T13:36:00.183Z,34.90
2018-09-26T13:38:30.351Z,33.30
2018-09-26T13:40:59.638Z,33.10
2018-09-26T13:43:28.945Z,32.80
2018-09-26T13:46:01.086Z,32.50
2018-09-26T13:48:33.055Z,34.40
2018-09-26T13:51:02.664Z,33.70
2018-09-26T13:53:32.219Z,33.60
2018-09-26T13:56:01.554Z,33.00
2018-09-26T13:58:30.936Z,33.30
2018-09-26T14:01:00.954Z,33.50
2018-09-26T14:03:30.274Z,33.30
2018-09-26T14:05:59.456Z,34.10
2018-09-26T14:08:30.211Z,34.40
2018-09-26T14:11:01.623Z,34.30
2018-09-26T14:13:31.591Z,33.90
2018-09-26T14:16:00.754Z,33.30
2018-09-26T14:18:31.282Z,33.90
2018-09-26T14:21:01.265Z,34.30
2018-09-26T14:23:32.363Z,36.20
2018-09-26T14:26:01.444Z,34.90
2018-09-26T14:28:33.187Z,35.70
2018-09-26T14:31:02.870Z,36.70
2018-09-26T14:33:32.139Z,35.90
2018-09-26T14:36:01.340Z,37.90
2018-09-26T14:38:31.846Z,36.20
2018-09-26T14:41:01.183Z,36.20
2018-09-26T14:43:30.923Z,35.50
2018-09-26T14:46:00.170Z,37.20
2018-09-26T14:48:29.452Z,36.00
2018-09-26T14:51:00.673Z,37.50
2018-09-26T14:53:30.003Z,37.40
2018-09-26T14:55:59.260Z,38.60
2018-09-26T14:58:28.584Z,38.50
2018-09-26T15:00:58.871Z,40.50
2018-09-26T15:03:28.105Z,38.70
2018-09-26T15:05:57.845Z,38.20
2018-09-26T15:08:27.205Z,37.80
2018-09-26T15:10:56.425Z,37.70
2018-09-26T15:13:25.598Z,39.70
2018-09-26T15:15:54.831Z,39.20
2018-09-26T15:18:24.058Z,41.10
2018-09-26T15:20:53.283Z,39.30
2018-09-26T15:23:22.580Z,40.00
2018-09-26T15:25:53.000Z,39.90
2018-09-26T15:28:22.149Z,39.00
2018-09-26T15:30:51.435Z,39.80
2018-09-26T15:33:20.659Z,39.80
2018-09-26T15:35:50.541Z,40.50
2018-09-26T15:38:21.431Z,41.40
2018-09-26T15:40:53.548Z,39.60
2018-09-26T15:43:24.927Z,40.10
2018-09-26T15:45:54.380Z,39.90
2018-09-26T15:48:23.675Z,42.30
2018-09-26T15:50:53.886Z,41.40
2018-09-26T15:53:24.786Z,41.60
2018-09-26T15:55:54.006Z,41.60
2018-09-26T15:58:23.199Z,40.90
2018-09-26T16:00:52.786Z,42.00
2018-09-26T16:03:21.963Z,41.60
2018-09-26T16:05:51.049Z,43.70
2018-09-26T16:08:20.314Z,43.10
2018-09-26T16:10:49.399Z,42.20
2018-09-26T16:13:19.255Z,42.70
2018-09-26T16:15:49.728Z,42.30
2018-09-26T16:18:19.920Z,42.50
2018-09-26T16:20:50.735Z,43.10
2018-09-26T16:23:26.785Z,43.00
2018-09-26T16:25:56.883Z,43.00
2018-09-26T16:28:27.255Z,42.90
2018-09-26T16:30:57.133Z,43.40
2018-09-26T16:33:29.840Z,43.70
2018-09-26T16:35:59.011Z,45.40
2018-09-26T16:38:28.322Z,44.90
2018-09-26T16:40:57.487Z,45.20
2018-09-26T16:43:26.662Z,45.90
2018-09-26T16:45:55.878Z,45.90
2018-09-26T16:48:24.980Z,47.60
2018-09-26T16:50:54.142Z,49.10
2018-09-26T16:53:23.370Z,47.40
2018-09-26T16:55:52.906Z,47.70
2018-09-26T16:58:22.420Z,47.50
2018-09-26T17:00:51.591Z,48.00
2018-09-26T17:03:21.130Z,48.30
2018-09-26T17:05:51.105Z,50.70
2018-09-26T17:08:20.293Z,48.00
2018-09-26T17:10:49.796Z,49.00
2018-09-26T17:13:18.973Z,49.20
2018-09-26T17:15:48.240Z,49.70
2018-09-26T17:18:17.514Z,50.00
2018-09-26T17:20:46.730Z,49.90
2018-09-26T17:23:15.911Z,48.90
2018-09-26T17:25:46.134Z,50.30
2018-09-26T17:28:16.077Z,50.80
2018-09-26T17:30:45.951Z,51.00
2018-09-26T17:33:22.243Z,51.10
2018-09-26T17:35:52.127Z,51.70
2018-09-26T17:38:21.230Z,52.50
2018-09-26T17:41:19.150Z,51.10
2018-09-26T17:43:48.277Z,52.10
2018-09-26T17:46:17.456Z,52.80
2018-09-26T17:48:53.658Z,52.00
2018-09-26T17:51:22.931Z,53.30
2018-09-26T17:53:52.768Z,53.00
2018-09-26T17:56:22.061Z,51.50
2018-09-26T17:58:51.339Z,52.50
2018-09-26T18:01:20.690Z,52.30
2018-09-26T18:03:50.396Z,54.00
2018-09-26T18:06:19.608Z,52.80
2018-09-26T18:08:49.340Z,52.50
2018-09-26T18:11:18.568Z,52.20
2018-09-26T18:13:48.492Z,52.50
2018-09-26T18:16:17.685Z,52.90
2018-09-26T18:18:46.919Z,53.40
2018-09-26T18:21:16.099Z,52.10
2018-09-26T18:23:45.151Z,51.80
2018-09-26T18:26:15.095Z,52.40
2018-09-26T18:28:58.319Z,52.60
2018-09-26T18:31:28.440Z,52.00
2018-09-26T18:34:05.691Z,52.90
2018-09-26T18:36:35.564Z,52.90
2018-09-26T18:39:30.484Z,54.80
2018-09-26T18:42:00.298Z,54.70
2018-09-26T18:44:30.120Z,54.80
2018-09-26T18:46:59.251Z,56.20
2018-09-26T18:49:28.398Z,55.90
2018-09-26T18:51:58.631Z,55.60
2018-09-26T18:54:38.610Z,55.30
2018-09-26T18:57:41.478Z,55.50
2018-09-26T19:00:11.838Z,55.70
2018-09-26T19:02:40.935Z,56.10
2018-09-26T19:05:14.002Z,56.20
2018-09-26T19:07:43.190Z,56.70
2018-09-26T19:10:12.418Z,56.50
2018-09-26T19:12:41.492Z,56.90
2018-09-26T19:15:10.757Z,57.00
2018-09-26T19:17:39.920Z,56.80
2018-09-26T19:20:09.161Z,56.30
2018-09-26T19:22:53.493Z,57.10
2018-09-26T19:25:22.582Z,57.40
2018-09-26T19:27:52.466Z,57.60
2018-09-26T19:30:22.320Z,57.50
2018-09-26T19:33:01.235Z,58.30
2018-09-26T19:35:51.966Z,57.70
2018-09-26T19:38:28.370Z,58.30
2018-09-26T19:40:57.532Z,58.60
2018-09-26T19:44:06.734Z,58.90
2018-09-26T19:46:43.310Z,59.20
2018-09-26T19:49:12.517Z,59.90
2018-09-26T19:51:41.699Z,60.80
2018-09-26T19:54:14.391Z,61.10
2018-09-26T19:56:43.688Z,62.10
2018-09-26T19:59:12.990Z,63.10
2018-09-26T20:02:20.589Z,65.00
2018-09-26T20:04:49.853Z,65.20
2018-09-26T20:07:18.911Z,65.20
2018-09-26T20:09:49.101Z,65.60
2018-09-26T20:12:41.665Z,66.90
2018-09-26T20:15:11.114Z,66.90
2018-09-26T20:17:40.398Z,67.60
2018-09-26T20:20:22.577Z,68.10
2018-09-26T20:23:26.091Z,69.10
2018-09-26T20:26:05.498Z,71.40
2018-09-26T20:28:42.341Z,72.90
2018-09-26T20:31:28.402Z,74.20
2018-09-26T20:34:28.154Z,74.90
2018-09-26T20:36:57.284Z,76.40
2018-09-26T20:39:26.463Z,80.90
2018-09-26T20:42:08.143Z,80.60
2018-09-26T20:44:37.338Z,81.30
2018-09-26T20:47:06.583Z,80.60
2018-09-26T20:52:27.660Z,81.70
2018-09-26T20:55:07.086Z,81.80
2018-09-26T20:58:10.491Z,81.40
2018-09-26T21:00:39.622Z,82.20
2018-09-26T21:03:08.710Z,84.20
2018-09-26T21:05:37.820Z,83.30
2018-09-26T21:08:14.231Z,84.20
2018-09-26T21:11:26.410Z,84.40
2018-09-26T21:17:26.333Z,85.30
2018-09-26T21:20:03.738Z,84.40
2018-09-26T21:22:40.946Z,85.50
2018-09-26T21:25:19.558Z,85.70
2018-09-26T21:27:48.711Z,86.70
2018-09-26T21:30:30.713Z,88.60
2018-09-26T21:33:00.519Z,91.00
2018-09-26T21:35:29.720Z,90.00
2018-09-26T21:37:58.904Z,90.70
2018-09-26T21:40:28.927Z,91.10
2018-09-26T21:46:19.135Z,91.40
2018-09-26T21:49:00.990Z,91.50
2018-09-26T21:51:30.206Z,91.80
2018-09-26T21:54:02.462Z,92.50
2018-09-26T21:56:59.310Z,92.20
2018-09-26T21:59:37.697Z,92.20
2018-09-26T22:02:36.846Z,91.90
2018-09-26T22:05:09.730Z,92.30
2018-09-26T22:07:46.805Z,92.60
2018-09-26T22:10:43.995Z,92.60
2018-09-26T22:13:16.625Z,92.70
2018-09-26T22:15:45.855Z,93.80
2018-09-26T22:18:30.566Z,93.70
2018-09-26T22:21:14.206Z,94.00
2018-09-26T22:27:43.463Z,94.70
2018-09-26T22:34:20.927Z,95.60
2018-09-26T22:36:50.855Z,97.20
2018-09-26T22:39:27.085Z,99.70
2018-09-26T22:41:56.241Z,97.80
2018-09-26T22:44:27.407Z,99.90
2018-09-26T22:46:56.478Z,99.70
2018-09-26T22:49:26.594Z,99.00
2018-09-26T22:51:55.665Z,99.10
2018-09-26T22:54:24.788Z,99.10
2018-09-26T22:57:07.139Z,99.20
2018-09-26T22:59:39.244Z,99.60
2018-09-26T23:02:08.411Z,99.60
2018-09-26T23:04:50.158Z,99.60
2018-09-26T23:07:20.020Z,99.90
2018-09-26T23:09:49.279Z,99.90
2018-09-26T23:12:25.922Z,99.90
2018-09-26T23:14:55.954Z,99.90
2018-09-26T23:17:32.489Z,99.90
2018-09-26T23:20:29.749Z,99.90
2018-09-26T23:23:01.983Z,99.90
2018-09-26T23:25:43.989Z,99.90
2018-09-26T23:28:20.653Z,99.90
2018-09-26T23:30:53.478Z,99.90
2018-09-26T23:36:02.705Z,99.90
2018-09-26T23:39:19.284Z,99.90
2018-09-26T23:41:48.610Z,99.90
2018-09-26T23:44:44.008Z,99.90
2018-09-26T23:47:13.186Z,99.90
2018-09-26T23:49:55.019Z,99.90
2018-09-26T23:52:24.311Z,99.90
2018-09-26T23:54:54.170Z,99.90
2018-09-26T23:57:24.355Z,99.90
2018-09-26T23:59:54.574Z,99.90
